Time;durP1;ratioP1;P1;durP2;ratioP2;P2;SDS_P1;SDS_P2;PMS_P1;PMS_P2;Temp;Humidity;BMP_temperature;BMP_pressure;BME280_temperature;BME280_humidity;BME280_pressure;Samples;Min_cycle;Max_cycle;Signal;HPM_P1;HPM_P2
2022/04/14 00:00:48;;;;;;;1999.90;999.90;;;;;;;;;;5085601;28;20255;-76
2022/04/14 00:03:17;;;;;;;1999.90;999.90;;;;;;;;;;5087079;28;20234;-75
2022/04/14 00:05:44;;;;;;;1999.90;999.90;;;;;;;;;;5085682;28;20227;-75
2022/04/14 00:08:12;;;;;;;1999.90;999.90;;;;;;;;;;5086256;28;20255;-75
2022/04/14 00:10:39;;;;;;;1999.90;999.90;;;;;;;;;;5082001;28;20227;-75
2022/04/14 00:13:07;;;;;;;1999.90;999.90;;;;;;;;;;5065493;28;20737;-76
2022/04/14 00:15:34;;;;;;;1999.90;999.90;;;;;;;;;;5086719;28;20760;-77
2022/04/14 00:18:02;;;;;;;1999.90;999.90;;;;;;;;;;5083079;28;20314;-77
2022/04/14 00:20:31;;;;;;;1999.90;999.90;;;;;;;;;;5080965;28;20235;-75
2022/04/14 00:22:59;;;;;;;1999.90;999.90;;;;;;;;;;5085251;28;20238;-76
2022/04/14 00:25:27;;;;;;;1999.90;999.90;;;;;;;;;;5083618;28;20236;-75
2022/04/14 00:27:55;;;;;;;1999.90;999.90;;;;;;;;;;5118073;27;20243;-75
2022/04/14 00:30:22;;;;;;;1999.90;999.90;;;;;;;;;;5096437;27;20796;-76
2022/04/14 00:32:50;;;;;;;1999.90;999.90;;;;;;;;;;5115378;27;20978;-75
2022/04/14 00:35:17;;;;;;;1999.90;999.90;;;;;;;;;;5085359;28;20235;-76
2022/04/14 00:37:46;;;;;;;1999.90;999.90;;;;;;;;;;5080181;28;20697;-76
2022/04/14 00:40:14;;;;;;;1999.90;999.90;;;;;;;;;;5080951;28;20224;-76
2022/04/14 00:42:41;;;;;;;1999.90;999.90;;;;;;;;;;5085914;28;20223;-75
2022/04/14 00:45:09;;;;;;;1999.90;999.90;;;;;;;;;;5086442;28;20289;-76
2022/04/14 00:47:37;;;;;;;1999.90;999.90;;;;;;;;;;5068704;28;20223;-76
2022/04/14 00:50:05;;;;;;;1999.90;999.90;;;;;;;;;;5081060;28;20259;-76
2022/04/14 00:52:33;;;;;;;1999.90;999.90;;;;;;;;;;5085510;28;20230;-77
2022/04/14 00:55:02;;;;;;;1999.90;999.90;;;;;;;;;;5080414;28;20235;-76
2022/04/14 00:57:29;;;;;;;1999.90;999.90;;;;;;;;;;5078420;28;20227;-76
2022/04/14 00:59:57;;;;;;;1999.90;999.90;;;;;;;;;;5120694;27;20219;-75
2022/04/14 01:02:24;;;;;;;1999.90;999.90;;;;;;;;;;5086262;28;20227;-74
2022/04/14 01:04:52;;;;;;;1999.90;999.90;;;;;;;;;;5082483;28;20246;-76
2022/04/14 01:07:20;;;;;;;1999.90;999.90;;;;;;;;;;5083573;28;20255;-75
2022/04/14 01:09:47;;;;;;;1999.90;999.90;;;;;;;;;;5080115;28;20741;-74
2022/04/14 01:12:16;;;;;;;1999.90;999.90;;;;;;;;;;5087151;28;20266;-74
2022/04/14 01:14:44;;;;;;;1999.90;999.90;;;;;;;;;;5083083;28;20301;-75
2022/04/14 01:17:11;;;;;;;1999.90;999.90;;;;;;;;;;5083546;28;20228;-75
2022/04/14 01:19:40;;;;;;;1999.90;999.90;;;;;;;;;;5076439;28;20289;-74
2022/04/14 01:22:08;;;;;;;1999.90;999.90;;;;;;;;;;5080191;28;20686;-74
2022/04/14 01:24:37;;;;;;;1999.90;999.90;;;;;;;;;;5082242;28;20744;-75
2022/04/14 01:27:05;;;;;;;1999.90;999.90;;;;;;;;;;5109470;27;20756;-75
2022/04/14 01:29:32;;;;;;;1999.90;999.90;;;;;;;;;;5082017;28;21323;-74
2022/04/14 01:32:01;;;;;;;1999.90;999.90;;;;;;;;;;5085701;28;20270;-76
2022/04/14 01:34:30;;;;;;;1999.90;999.90;;;;;;;;;;5083118;28;20285;-73
2022/04/14 01:36:57;;;;;;;1999.90;999.90;;;;;;;;;;5080211;28;20323;-73
2022/04/14 01:39:25;;;;;;;1999.90;999.90;;;;;;;;;;5066608;28;20989;-73
2022/04/14 01:41:54;;;;;;;1999.90;999.90;;;;;;;;;;5084790;28;20277;-74
2022/04/14 01:44:22;;;;;;;1999.90;999.90;;;;;;;;;;5120911;27;20265;-75
2022/04/14 01:46:49;;;;;;;1999.90;999.90;;;;;;;;;;5086662;28;20714;-74
2022/04/14 01:49:17;;;;;;;1999.90;999.90;;;;;;;;;;5085082;28;20227;-77
2022/04/14 01:51:44;;;;;;;1999.90;999.90;;;;;;;;;;5090135;28;20223;-75
2022/04/14 01:54:12;;;;;;;1999.90;999.90;;;;;;;;;;5088165;28;20259;-74
2022/04/14 01:56:39;;;;;;;1999.90;999.90;;;;;;;;;;5115484;27;20262;-74
2022/04/14 01:59:08;;;;;;;1999.90;999.90;;;;;;;;;;5087004;28;20251;-75
2022/04/14 02:01:36;;;;;;;1999.90;999.90;;;;;;;;;;5079756;28;20231;-75
2022/04/14 02:04:07;;;;;;;1999.90;999.90;;;;;;;;;;5078661;28;20316;-74
2022/04/14 02:06:37;;;;;;;1999.90;999.90;;;;;;;;;;5064057;28;20220;-74
2022/04/14 02:09:05;;;;;;;1999.90;999.90;;;;;;;;;;5085446;28;20227;-77
2022/04/14 02:11:33;;;;;;;1999.90;999.90;;;;;;;;;;5084603;28;20215;-74
2022/04/14 02:14:01;;;;;;;1999.90;999.90;;;;;;;;;;5083947;28;20326;-75
2022/04/14 02:16:30;;;;;;;1999.90;999.90;;;;;;;;;;5087628;28;20226;-75
2022/04/14 02:18:58;;;;;;;1999.90;999.90;;;;;;;;;;5081546;28;20263;-76
2022/04/14 02:21:25;;;;;;;1999.90;999.90;;;;;;;;;;5118276;27;20285;-75
2022/04/14 02:23:53;;;;;;;1999.90;999.90;;;;;;;;;;5088864;28;20230;-75
2022/04/14 02:26:20;;;;;;;1999.90;999.90;;;;;;;;;;5085719;28;20227;-75
2022/04/14 02:28:48;;;;;;;1999.90;999.90;;;;;;;;;;5086858;28;21122;-75
2022/04/14 02:31:15;;;;;;;1999.90;999.90;;;;;;;;;;5085552;28;20301;-76
2022/04/14 02:33:44;;;;;;;1999.90;999.90;;;;;;;;;;5064882;28;20725;-75
2022/04/14 02:36:11;;;;;;;1999.90;999.90;;;;;;;;;;5083173;28;20232;-75
2022/04/14 02:38:39;;;;;;;1999.90;999.90;;;;;;;;;;5083931;28;20256;-75
2022/04/14 02:41:06;;;;;;;1999.90;999.90;;;;;;;;;;5083288;28;20311;-75
2022/04/14 02:43:36;;;;;;;1999.90;999.90;;;;;;;;;;5084672;28;20234;-75
2022/04/14 02:46:04;;;;;;;1999.90;999.90;;;;;;;;;;5085257;28;20334;-76
2022/04/14 02:48:32;;;;;;;1999.90;999.90;;;;;;;;;;5080939;28;21057;-74
2022/04/14 02:51:01;;;;;;;1999.90;999.90;;;;;;;;;;5114600;27;20804;-74
2022/04/14 02:53:29;;;;;;;1999.90;999.90;;;;;;;;;;5081736;28;20729;-74
2022/04/14 02:55:56;;;;;;;1999.90;999.90;;;;;;;;;;5087556;28;20329;-74
2022/04/14 02:58:23;;;;;;;1999.90;999.90;;;;;;;;;;5081774;28;20812;-75
2022/04/14 03:00:51;;;;;;;1999.90;999.90;;;;;;;;;;5084761;28;20262;-74
2022/04/14 03:03:23;;;;;;;1999.90;999.90;;;;;;;;;;5082849;28;20737;-74
2022/04/14 03:05:51;;;;;;;1999.90;999.90;;;;;;;;;;5091419;28;20262;-74
2022/04/14 03:08:20;;;;;;;1999.90;999.90;;;;;;;;;;5121313;27;20318;-74
2022/04/14 03:10:47;;;;;;;1999.90;999.90;;;;;;;;;;5084024;28;20718;-75
2022/04/14 03:13:15;;;;;;;1999.90;999.90;;;;;;;;;;5087360;28;20309;-74
2022/04/14 03:15:57;;;;;;;1999.90;999.90;;;;;;;;;;5081986;28;20228;-75
2022/04/14 03:18:25;;;;;;;1999.90;999.90;;;;;;;;;;5080190;28;20235;-75
2022/04/14 03:20:52;;;;;;;1999.90;999.90;;;;;;;;;;5115561;27;21029;-74
2022/04/14 03:23:21;;;;;;;1999.90;999.90;;;;;;;;;;5082593;28;20232;-74
2022/04/14 03:25:49;;;;;;;1999.90;999.90;;;;;;;;;;5086792;28;20223;-74
2022/04/14 03:28:17;;;;;;;1999.90;999.90;;;;;;;;;;5083700;28;20311;-74
2022/04/14 03:30:45;;;;;;;1999.90;999.90;;;;;;;;;;5116828;27;20227;-75
2022/04/14 03:33:12;;;;;;;1999.90;999.90;;;;;;;;;;5085137;28;20318;-75
2022/04/14 03:35:40;;;;;;;1999.90;999.90;;;;;;;;;;5079821;28;20211;-75
2022/04/14 03:38:07;;;;;;;1999.90;999.90;;;;;;;;;;5077711;28;20251;-75
2022/04/14 03:40:56;;;;;;;1999.90;999.90;;;;;;;;;;5116450;27;20236;-74
2022/04/14 03:43:23;;;;;;;1999.90;999.90;;;;;;;;;;5081801;28;20296;-75
2022/04/14 03:45:51;;;;;;;1999.90;999.90;;;;;;;;;;5078175;28;21546;-73
2022/04/14 03:48:19;;;;;;;1999.90;999.90;;;;;;;;;;5061334;28;20235;-74
2022/04/14 03:50:46;;;;;;;1999.90;999.90;;;;;;;;;;5076897;28;20340;-76
2022/04/14 03:53:14;;;;;;;1999.90;999.90;;;;;;;;;;5096263;27;20277;-75
2022/04/14 03:55:41;;;;;;;1999.90;999.90;;;;;;;;;;5080069;28;20268;-75
2022/04/14 03:58:10;;;;;;;1999.90;999.90;;;;;;;;;;5060497;28;20239;-75
2022/04/14 04:00:38;;;;;;;1999.90;999.90;;;;;;;;;;5085019;28;20279;-76
2022/04/14 04:03:08;;;;;;;1999.90;999.90;;;;;;;;;;5076471;28;20310;-75
2022/04/14 04:05:38;;;;;;;1999.90;999.90;;;;;;;;;;5082533;28;20223;-75
2022/04/14 04:08:21;;;;;;;1999.90;999.90;;;;;;;;;;5082541;28;20243;-74
2022/04/14 04:10:48;;;;;;;1999.90;999.90;;;;;;;;;;5087895;28;20227;-74
2022/04/14 04:13:18;;;;;;;1999.90;999.90;;;;;;;;;;5084300;28;20220;-75
2022/04/14 04:15:46;;;;;;;1999.90;999.90;;;;;;;;;;5083975;28;20980;-74
2022/04/14 04:18:13;;;;;;;1999.90;999.90;;;;;;;;;;5083766;28;20322;-75
2022/04/14 04:20:41;;;;;;;1999.90;999.90;;;;;;;;;;5083377;28;20760;-75
2022/04/14 04:23:09;;;;;;;1999.90;999.90;;;;;;;;;;5118444;27;20247;-76
2022/04/14 04:25:36;;;;;;;1999.90;999.90;;;;;;;;;;5077180;28;20223;-74
2022/04/14 04:28:04;;;;;;;1999.90;999.90;;;;;;;;;;5079561;28;20231;-75
2022/04/14 04:30:33;;;;;;;1999.90;999.90;;;;;;;;;;5082376;28;20227;-74
2022/04/14 04:33:01;;;;;;;1999.90;999.90;;;;;;;;;;5082826;28;20266;-74
2022/04/14 04:35:29;;;;;;;1999.90;999.90;;;;;;;;;;5084861;28;20254;-75
2022/04/14 04:37:56;;;;;;;1999.90;999.90;;;;;;;;;;5082827;28;20791;-75
2022/04/14 04:40:24;;;;;;;1999.90;999.90;;;;;;;;;;5082276;28;20227;-75
2022/04/14 04:42:51;;;;;;;1999.90;999.90;;;;;;;;;;5083476;28;20767;-76
2022/04/14 04:45:19;;;;;;;1999.90;999.90;;;;;;;;;;5065758;28;20646;-76
2022/04/14 04:47:48;;;;;;;1999.90;999.90;;;;;;;;;;5081660;28;20259;-76
2022/04/14 04:50:15;;;;;;;1999.90;999.90;;;;;;;;;;5082438;28;20254;-76
2022/04/14 04:52:43;;;;;;;1999.90;999.90;;;;;;;;;;5080305;28;20336;-75
2022/04/14 04:55:11;;;;;;;1999.90;999.90;;;;;;;;;;5078072;28;20231;-76
2022/04/14 04:57:38;;;;;;;1999.90;999.90;;;;;;;;;;5111730;27;20284;-75
2022/04/14 05:00:07;;;;;;;1999.90;999.90;;;;;;;;;;5113815;27;20228;-77
2022/04/14 05:02:35;;;;;;;1999.90;999.90;;;;;;;;;;5084126;28;20232;-75
2022/04/14 05:05:04;;;;;;;1999.90;999.90;;;;;;;;;;5104652;27;20228;-75
2022/04/14 05:07:32;;;;;;;1999.90;999.90;;;;;;;;;;5088455;28;20702;-75
2022/04/14 05:09:59;;;;;;;1999.90;999.90;;;;;;;;;;5064083;28;20231;-76
2022/04/14 05:12:27;;;;;;;1999.90;999.90;;;;;;;;;;5091080;28;20735;-76
2022/04/14 05:14:54;;;;;;;1999.90;999.90;;;;;;;;;;5084197;28;20738;-76
2022/04/14 05:17:22;;;;;;;1999.90;999.90;;;;;;;;;;5085178;28;20236;-77
2022/04/14 05:19:49;;;;;;;1999.90;999.90;;;;;;;;;;5081038;28;20318;-77
2022/04/14 05:22:18;;;;;;;1999.90;999.90;;;;;;;;;;5087054;28;20305;-77
2022/04/14 05:24:46;;;;;;;1999.90;999.90;;;;;;;;;;5087879;28;20407;-75
2022/04/14 05:27:13;;;;;;;1999.90;999.90;;;;;;;;;;5087335;28;20227;-75
2022/04/14 05:29:41;;;;;;;1999.90;999.90;;;;;;;;;;5083736;28;20233;-75
2022/04/14 05:32:09;;;;;;;1999.90;999.90;;;;;;;;;;5085087;28;20231;-76
2022/04/14 05:34:37;;;;;;;1999.90;999.90;;;;;;;;;;5081003;28;20285;-78
2022/04/14 05:37:04;;;;;;;1999.90;999.90;;;;;;;;;;5081375;28;20235;-74
2022/04/14 05:39:33;;;;;;;1999.90;999.90;;;;;;;;;;5086212;28;20227;-75
2022/04/14 05:42:01;;;;;;;1999.90;999.90;;;;;;;;;;5087421;28;20316;-77
2022/04/14 05:44:28;;;;;;;1999.90;999.90;;;;;;;;;;5082240;28;20254;-75
2022/04/14 05:46:56;;;;;;;1999.90;999.90;;;;;;;;;;5067022;28;20227;-75
2022/04/14 05:49:23;;;;;;;1999.90;999.90;;;;;;;;;;5119874;27;20265;-76
2022/04/14 05:51:51;;;;;;;1999.90;999.90;;;;;;;;;;5085867;28;20297;-75
2022/04/14 05:54:18;;;;;;;1999.90;999.90;;;;;;;;;;5085606;28;20242;-75
2022/04/14 05:56:47;;;;;;;1999.90;999.90;;;;;;;;;;5090038;28;20227;-76
2022/04/14 05:59:16;;;;;;;1999.90;999.90;;;;;;;;;;5120351;27;21110;-75
2022/04/14 06:01:44;;;;;;;1999.90;999.90;;;;;;;;;;5084907;28;20721;-78
2022/04/14 06:04:12;;;;;;;1999.90;999.90;;;;;;;;;;5088659;28;20242;-75
2022/04/14 06:06:55;;;;;;;1999.90;999.90;;;;;;;;;;5080589;28;20261;-75
2022/04/14 06:09:22;;;;;;;1999.90;999.90;;;;;;;;;;5105595;27;20758;-76
2022/04/14 06:11:51;;;;;;;1999.90;999.90;;;;;;;;;;5071574;28;20227;-76
2022/04/14 06:14:19;;;;;;;1999.90;999.90;;;;;;;;;;5086007;28;21047;-75
2022/04/14 06:16:46;;;;;;;1999.90;999.90;;;;;;;;;;5079952;28;20282;-75
2022/04/14 06:19:15;;;;;;;1999.90;999.90;;;;;;;;;;5116246;27;20313;-76
2022/04/14 06:21:43;;;;;;;1999.90;999.90;;;;;;;;;;5080572;28;20723;-76
2022/04/14 06:24:10;;;;;;;1999.90;999.90;;;;;;;;;;5083952;28;20235;-76
2022/04/14 06:26:38;;;;;;;1999.90;999.90;;;;;;;;;;5078403;28;20322;-76
2022/04/14 06:29:06;;;;;;;1999.90;999.90;;;;;;;;;;5088662;28;20262;-78
2022/04/14 06:31:35;;;;;;;1999.90;999.90;;;;;;;;;;5078922;28;20231;-77
2022/04/14 06:34:03;;;;;;;1999.90;999.90;;;;;;;;;;5083947;28;20231;-77
2022/04/14 06:36:30;;;;;;;1999.90;999.90;;;;;;;;;;5081047;28;20236;-76
2022/04/14 06:38:58;;;;;;;1999.90;999.90;;;;;;;;;;5085106;28;20243;-75
2022/04/14 06:41:26;;;;;;;1999.90;999.90;;;;;;;;;;5082394;28;20674;-75
2022/04/14 06:43:54;;;;;;;1999.90;999.90;;;;;;;;;;5077025;28;21016;-79
2022/04/14 06:46:27;;;;;;;1999.90;999.90;;;;;;;;;;5076946;28;20231;-76
2022/04/14 06:48:56;;;;;;;1999.90;999.90;;;;;;;;;;5080603;28;20244;-75
2022/04/14 06:51:24;;;;;;;1999.90;999.90;;;;;;;;;;5083252;28;20236;-76
2022/04/14 06:53:51;;;;;;;1999.90;999.90;;;;;;;;;;5082767;28;20285;-77
2022/04/14 06:56:19;;;;;;;1999.90;999.90;;;;;;;;;;5079895;28;20269;-75
2022/04/14 06:58:46;;;;;;;1999.90;999.90;;;;;;;;;;5083556;28;20331;-75
2022/04/14 07:01:14;;;;;;;1999.90;999.90;;;;;;;;;;5060809;28;20227;-76
2022/04/14 07:03:43;;;;;;;1999.90;999.90;;;;;;;;;;5080798;28;21043;-76
2022/04/14 07:06:10;;;;;;;1999.90;999.90;;;;;;;;;;5115868;27;20257;-75
2022/04/14 07:08:38;;;;;;;1999.90;999.90;;;;;;;;;;5074343;28;20293;-71
2022/04/14 07:11:05;;;;;;;1999.90;999.90;;;;;;;;;;5084802;28;20314;-74
2022/04/14 07:13:33;;;;;;;1999.90;999.90;;;;;;;;;;5079321;28;20245;-74
2022/04/14 07:16:01;;;;;;;1999.90;999.90;;;;;;;;;;5081781;28;20227;-74
2022/04/14 07:18:28;;;;;;;1999.90;999.90;;;;;;;;;;5088131;28;21049;-74
2022/04/14 07:20:57;;;;;;;1999.90;999.90;;;;;;;;;;5115865;27;20259;-75
2022/04/14 07:23:25;;;;;;;1999.90;999.90;;;;;;;;;;5085568;28;21830;-74
2022/04/14 07:25:53;;;;;;;1999.90;999.90;;;;;;;;;;5077246;28;20237;-75
2022/04/14 07:28:20;;;;;;;1999.90;999.90;;;;;;;;;;5085732;28;20378;-74
2022/04/14 07:30:54;;;;;;;1999.90;999.90;;;;;;;;;;5077526;28;20235;-74
2022/04/14 07:33:22;;;;;;;1999.90;999.90;;;;;;;;;;5077095;28;20328;-73
2022/04/14 07:35:52;;;;;;;1999.90;999.90;;;;;;;;;;5080299;28;20730;-73
2022/04/14 07:38:21;;;;;;;1999.90;999.90;;;;;;;;;;5082029;28;20249;-75
2022/04/14 07:40:49;;;;;;;1999.90;999.90;;;;;;;;;;5083315;28;20231;-75
2022/04/14 07:43:16;;;;;;;1999.90;999.90;;;;;;;;;;5079438;28;20270;-76
2022/04/14 07:45:45;;;;;;;1999.90;999.90;;;;;;;;;;5084733;28;20304;-75
2022/04/14 07:48:13;;;;;;;1999.90;999.90;;;;;;;;;;5086479;28;20255;-75
2022/04/14 07:50:40;;;;;;;1999.90;999.90;;;;;;;;;;5084695;28;20238;-76
2022/04/14 07:53:08;;;;;;;1999.90;999.90;;;;;;;;;;5116734;27;20720;-75
2022/04/14 07:55:38;;;;;;;1999.90;999.90;;;;;;;;;;5077602;28;20254;-75
2022/04/14 07:58:07;;;;;;;1999.90;999.90;;;;;;;;;;5086205;28;20287;-75
2022/04/14 08:00:35;;;;;;;1999.90;999.90;;;;;;;;;;5081480;28;20244;-75
2022/04/14 08:03:03;;;;;;;1999.90;999.90;;;;;;;;;;5080922;28;20285;-75
2022/04/14 08:05:33;;;;;;;1999.90;999.90;;;;;;;;;;5087134;28;20223;-75
2022/04/14 08:08:02;;;;;;;1999.90;999.90;;;;;;;;;;5084203;28;20222;-75
2022/04/14 08:10:29;;;;;;;1999.90;999.90;;;;;;;;;;5089024;28;20243;-76
2022/04/14 08:12:58;;;;;;;1999.90;999.90;;;;;;;;;;5080427;28;20247;-75
2022/04/14 08:15:27;;;;;;;1999.90;999.90;;;;;;;;;;5087374;28;20238;-76
2022/04/14 08:17:55;;;;;;;1999.90;999.90;;;;;;;;;;5084582;28;20310;-76
2022/04/14 08:20:23;;;;;;;1999.90;999.90;;;;;;;;;;5079860;28;20326;-76
2022/04/14 08:22:51;;;;;;;1999.90;999.90;;;;;;;;;;5085273;28;20227;-76
2022/04/14 08:25:20;;;;;;;1999.90;999.90;;;;;;;;;;5086625;28;20228;-76
2022/04/14 08:27:48;;;;;;;1999.90;999.90;;;;;;;;;;5082573;28;20280;-75
2022/04/14 08:30:18;;;;;;;1999.90;999.90;;;;;;;;;;5080402;28;20227;-75
2022/04/14 08:32:46;;;;;;;1999.90;999.90;;;;;;;;;;5083743;28;20699;-75
2022/04/14 08:35:14;;;;;;;1999.90;999.90;;;;;;;;;;5080170;28;20764;-76
2022/04/14 08:37:43;;;;;;;1999.90;999.90;;;;;;;;;;5082054;28;20305;-76
2022/04/14 08:40:11;;;;;;;1999.90;999.90;;;;;;;;;;5079197;28;20326;-76
2022/04/14 08:42:40;;;;;;;1999.90;999.90;;;;;;;;;;5087493;28;20731;-76
2022/04/14 08:45:09;;;;;;;1999.90;999.90;;;;;;;;;;5086366;28;20235;-76
2022/04/14 08:47:39;;;;;;;1999.90;999.90;;;;;;;;;;5086896;28;20234;-75
2022/04/14 08:50:08;;;;;;;1999.90;999.90;;;;;;;;;;5082719;28;20231;-75
2022/04/14 08:52:36;;;;;;;1999.90;999.90;;;;;;;;;;5084317;28;20310;-75
2022/04/14 08:55:05;;;;;;;1999.90;999.90;;;;;;;;;;5075695;28;20231;-74
2022/04/14 08:57:35;;;;;;;1999.90;999.90;;;;;;;;;;5083063;28;20231;-75
2022/04/14 09:00:04;;;;;;;1999.90;999.90;;;;;;;;;;5084357;28;20757;-74
2022/04/14 09:02:33;;;;;;;1999.90;999.90;;;;;;;;;;5075725;28;20306;-74
2022/04/14 09:05:02;;;;;;;1999.90;999.90;;;;;;;;;;5083939;28;20250;-74
2022/04/14 09:07:30;;;;;;;1999.90;999.90;;;;;;;;;;5079048;28;20230;-75
2022/04/14 09:09:58;;;;;;;1999.90;999.90;;;;;;;;;;5082838;28;20281;-80
2022/04/14 09:12:25;;;;;;;1999.90;999.90;;;;;;;;;;5073783;28;20232;-75
2022/04/14 09:14:53;;;;;;;1999.90;999.90;;;;;;;;;;5079063;28;20287;-75
2022/04/14 09:17:20;;;;;;;1999.90;999.90;;;;;;;;;;5077785;28;20235;-75
2022/04/14 09:19:48;;;;;;;1999.90;999.90;;;;;;;;;;5085675;28;22552;-76
2022/04/14 09:22:17;;;;;;;1999.90;999.90;;;;;;;;;;5113881;27;20281;-76
2022/04/14 09:24:47;;;;;;;1999.90;999.90;;;;;;;;;;5085373;28;20318;-75
2022/04/14 09:27:28;;;;;;;1999.90;999.90;;;;;;;;;;5080660;27;20398;-76
2022/04/14 09:29:57;;;;;;;1999.90;999.90;;;;;;;;;;5086206;28;20321;-75
2022/04/14 09:32:31;;;;;;;1999.90;999.90;;;;;;;;;;5083496;28;20319;-76
2022/04/14 09:34:59;;;;;;;1999.90;999.90;;;;;;;;;;5083600;28;20721;-75
2022/04/14 09:37:28;;;;;;;1999.90;999.90;;;;;;;;;;5085470;28;20672;-76
2022/04/14 09:40:00;;;;;;;1999.90;999.90;;;;;;;;;;5081576;28;20243;-75
2022/04/14 09:42:29;;;;;;;1999.90;999.90;;;;;;;;;;5062557;28;20223;-76
2022/04/14 09:45:16;;;;;;;1999.90;999.90;;;;;;;;;;5082581;28;20261;-75
2022/04/14 09:48:03;;;;;;;1999.90;999.90;;;;;;;;;;5083215;28;20781;-73
2022/04/14 09:50:34;;;;;;;1999.90;999.90;;;;;;;;;;5076281;28;20234;-73
2022/04/14 09:53:06;;;;;;;1999.90;999.90;;;;;;;;;;5114006;27;20322;-73
2022/04/14 09:55:34;;;;;;;1999.90;999.90;;;;;;;;;;5081544;28;20773;-75
2022/04/14 09:58:05;;;;;;;1999.90;999.90;;;;;;;;;;5092187;27;20281;-73
2022/04/14 10:00:36;;;;;;;1999.90;999.90;;;;;;;;;;5081548;28;20318;-74
2022/04/14 10:03:07;;;;;;;1999.90;999.90;;;;;;;;;;5081453;28;20262;-73
2022/04/14 10:05:38;;;;;;;1999.90;999.90;;;;;;;;;;5078382;28;20281;-73
2022/04/14 10:08:08;;;;;;;1999.90;999.90;;;;;;;;;;5081839;28;20232;-74
2022/04/14 10:10:37;;;;;;;1999.90;999.90;;;;;;;;;;5108429;27;20736;-74
2022/04/14 10:13:05;;;;;;;1999.90;999.90;;;;;;;;;;5079352;28;20227;-75
2022/04/14 10:15:34;;;;;;;1999.90;999.90;;;;;;;;;;5062502;28;20223;-75
2022/04/14 10:18:06;;;;;;;1999.90;999.90;;;;;;;;;;5063922;28;20622;-73
2022/04/14 10:20:35;;;;;;;1999.90;999.90;;;;;;;;;;5078838;28;20397;-74
2022/04/14 10:23:03;;;;;;;1999.90;999.90;;;;;;;;;;5089438;27;20392;-74
2022/04/14 10:25:36;;;;;;;1999.90;999.90;;;;;;;;;;5080757;28;21027;-73
2022/04/14 10:28:04;;;;;;;1999.90;999.90;;;;;;;;;;5081847;28;20231;-74
2022/04/14 10:30:32;;;;;;;1999.90;999.90;;;;;;;;;;5078670;28;20232;-75
2022/04/14 10:32:59;;;;;;;1999.90;999.90;;;;;;;;;;5080573;28;20227;-75
2022/04/14 10:35:29;;;;;;;1999.90;999.90;;;;;;;;;;5078238;28;20713;-74
2022/04/14 10:38:01;;;;;;;1999.90;999.90;;;;;;;;;;5108607;27;20814;-74
2022/04/14 10:40:30;;;;;;;1999.90;999.90;;;;;;;;;;5106008;27;21355;-74
2022/04/14 10:42:59;;;;;;;1999.90;999.90;;;;;;;;;;5075292;28;20230;-75
2022/04/14 10:45:27;;;;;;;1999.90;999.90;;;;;;;;;;5076741;28;20235;-75
2022/04/14 10:47:56;;;;;;;1999.90;999.90;;;;;;;;;;5069663;28;20242;-74
2022/04/14 10:50:24;;;;;;;1999.90;999.90;;;;;;;;;;5100399;27;20234;-74
2022/04/14 10:53:05;;;;;;;1999.90;999.90;;;;;;;;;;5077035;28;20232;-74
2022/04/14 10:55:40;;;;;;;1999.90;999.90;;;;;;;;;;5079337;28;20326;-73
2022/04/14 10:58:29;;;;;;;1999.90;999.90;;;;;;;;;;5082309;28;20234;-75
2022/04/14 11:00:57;;;;;;;1999.90;999.90;;;;;;;;;;5077716;28;20313;-75
2022/04/14 11:03:39;;;;;;;1999.90;999.90;;;;;;;;;;5081218;28;20275;-76
2022/04/14 11:06:06;;;;;;;1999.90;999.90;;;;;;;;;;5079693;28;20231;-74
2022/04/14 11:08:46;;;;;;;1999.90;999.90;;;;;;;;;;5078161;28;20255;-75
2022/04/14 11:11:14;;;;;;;1999.90;999.90;;;;;;;;;;5081432;28;20273;-74
2022/04/14 11:14:00;;;;;;;1999.90;999.90;;;;;;;;;;5080185;28;20223;-73
2022/04/14 11:16:44;;;;;;;1999.90;999.90;;;;;;;;;;5081004;28;20734;-72
2022/04/14 11:19:25;;;;;;;1999.90;999.90;;;;;;;;;;5062700;28;20238;-71
2022/04/14 11:22:07;;;;;;;1999.90;999.90;;;;;;;;;;5093175;27;20227;-75
2022/04/14 11:24:44;;;;;;;1999.90;999.90;;;;;;;;;;5079956;28;20289;-71
2022/04/14 11:27:16;;;;;;;1999.90;999.90;;;;;;;;;;5080023;28;20716;-73
2022/04/14 11:29:44;;;;;;;1999.90;999.90;;;;;;;;;;5083371;28;20227;-73
2022/04/14 11:32:15;;;;;;;1999.90;999.90;;;;;;;;;;5076607;28;20800;-72
2022/04/14 11:35:13;;;;;;;1999.90;999.90;;;;;;;;;;5063298;28;20318;-72
2022/04/14 11:37:41;;;;;;;1999.90;999.90;;;;;;;;;;5077551;28;20231;-72
2022/04/14 11:40:16;;;;;;;1999.90;999.90;;;;;;;;;;5090709;27;20227;-72
2022/04/14 11:42:44;;;;;;;1999.90;999.90;;;;;;;;;;5078995;28;20253;-71
2022/04/14 11:45:12;;;;;;;1999.90;999.90;;;;;;;;;;5108454;27;20254;-73
2022/04/14 11:47:41;;;;;;;1999.90;999.90;;;;;;;;;;5080239;28;20227;-72
2022/04/14 11:50:09;;;;;;;1999.90;999.90;;;;;;;;;;5092937;27;20301;-75
2022/04/14 11:52:38;;;;;;;1999.90;999.90;;;;;;;;;;5077793;28;21032;-75
2022/04/14 11:55:06;;;;;;;1999.90;999.90;;;;;;;;;;5078595;28;20581;-72
2022/04/14 11:57:37;;;;;;;1999.90;999.90;;;;;;;;;;5058808;28;20228;-72
2022/04/14 12:00:09;;;;;;;1999.90;999.90;;;;;;;;;;5079312;28;21508;-71
2022/04/14 12:02:38;;;;;;;1999.90;999.90;;;;;;;;;;5078816;28;20258;-73
2022/04/14 12:05:08;;;;;;;1999.90;999.90;;;;;;;;;;5078189;28;20227;-74
2022/04/14 12:07:36;;;;;;;1999.90;999.90;;;;;;;;;;5078596;28;20242;-73
2022/04/14 12:10:04;;;;;;;1999.90;999.90;;;;;;;;;;5078418;28;20260;-73
2022/04/14 12:12:32;;;;;;;1999.90;999.90;;;;;;;;;;5076981;28;21088;-74
2022/04/14 12:15:00;;;;;;;1999.90;999.90;;;;;;;;;;5079917;28;20234;-74
2022/04/14 12:17:28;;;;;;;1999.90;999.90;;;;;;;;;;5083118;28;20261;-73
2022/04/14 12:19:56;;;;;;;1999.90;999.90;;;;;;;;;;5078956;28;20262;-74
2022/04/14 12:22:26;;;;;;;1999.90;999.90;;;;;;;;;;5077875;28;20385;-73
2022/04/14 12:24:54;;;;;;;1999.90;999.90;;;;;;;;;;5080947;28;20230;-75
2022/04/14 12:27:23;;;;;;;1999.90;999.90;;;;;;;;;;5063113;28;20776;-73
2022/04/14 12:29:52;;;;;;;1999.90;999.90;;;;;;;;;;5109403;27;20439;-73
2022/04/14 12:32:23;;;;;;;1999.90;999.90;;;;;;;;;;5108488;27;20401;-73
2022/04/14 12:34:51;;;;;;;1999.90;999.90;;;;;;;;;;5078144;28;20780;-73
2022/04/14 12:37:19;;;;;;;1999.90;999.90;;;;;;;;;;5081047;28;20242;-74
2022/04/14 12:39:59;;;;;;;1999.90;999.90;;;;;;;;;;5106862;27;21028;-72
2022/04/14 12:42:29;;;;;;;1999.90;999.90;;;;;;;;;;5078210;28;20238;-72
2022/04/14 12:45:01;;;;;;;1999.90;999.90;;;;;;;;;;5073175;28;20215;-72
2022/04/14 12:47:29;;;;;;;1999.90;999.90;;;;;;;;;;5093815;27;20228;-72
2022/04/14 12:49:57;;;;;;;1999.90;999.90;;;;;;;;;;5104330;27;20362;-70
2022/04/14 12:52:26;;;;;;;1999.90;999.90;;;;;;;;;;5081020;28;20231;-72
2022/04/14 12:54:54;;;;;;;1999.90;999.90;;;;;;;;;;5074886;28;20242;-75
2022/04/14 12:57:23;;;;;;;1999.90;999.90;;;;;;;;;;5080141;28;20255;-73
2022/04/14 13:00:03;;;;;;;1999.90;999.90;;;;;;;;;;5076525;28;20330;-73
2022/04/14 13:02:31;;;;;;;1999.90;999.90;;;;;;;;;;5078230;28;20728;-73
2022/04/14 13:05:05;;;;;;;1999.90;999.90;;;;;;;;;;5076482;28;20228;-71
2022/04/14 13:07:44;;;;;;;1999.90;999.90;;;;;;;;;;5074940;28;20253;-75
2022/04/14 13:10:12;;;;;;;1999.90;999.90;;;;;;;;;;5075033;28;20233;-71
2022/04/14 13:12:42;;;;;;;1999.90;999.90;;;;;;;;;;5093924;27;20302;-72
2022/04/14 13:15:11;;;;;;;1999.90;999.90;;;;;;;;;;5077223;28;20310;-73
2022/04/14 13:17:38;;;;;;;1999.90;999.90;;;;;;;;;;5107036;27;21228;-73
2022/04/14 13:20:10;;;;;;;1999.90;999.90;;;;;;;;;;5077009;28;20238;-71
2022/04/14 13:22:38;;;;;;;1999.90;999.90;;;;;;;;;;5076166;28;20231;-73
2022/04/14 13:25:06;;;;;;;1999.90;999.90;;;;;;;;;;5077864;28;20228;-71
2022/04/14 13:27:34;;;;;;;1999.90;999.90;;;;;;;;;;5078100;28;20234;-71
2022/04/14 13:30:03;;;;;;;1999.90;999.90;;;;;;;;;;5076637;28;20705;-72
2022/04/14 13:32:31;;;;;;;1999.90;999.90;;;;;;;;;;5080331;28;20224;-70
2022/04/14 13:34:59;;;;;;;1999.90;999.90;;;;;;;;;;5080226;28;20245;-69
2022/04/14 13:37:27;;;;;;;1999.90;999.90;;;;;;;;;;5111667;27;20278;-72
2022/04/14 13:39:54;;;;;;;1999.90;999.90;;;;;;;;;;5108679;27;20325;-72
2022/04/14 13:42:22;;;;;;;1999.90;999.90;;;;;;;;;;5109845;27;20289;-73
2022/04/14 13:44:51;;;;;;;1999.90;999.90;;;;;;;;;;5096154;27;20235;-72
2022/04/14 13:47:19;;;;;;;1999.90;999.90;;;;;;;;;;5080551;27;20322;-70
2022/04/14 13:49:47;;;;;;;1999.90;999.90;;;;;;;;;;5081363;28;20402;-74
2022/04/14 13:52:15;;;;;;;1999.90;999.90;;;;;;;;;;5091641;27;20720;-71